Time;durP1;ratioP1;P1;durP2;ratioP2;P2;SDS_P1;SDS_P2;PMS_P1;PMS_P2;Temp;Humidity;BMP_temperature;BMP_pressure;BME280_temperature;BME280_humidity;BME280_pressure;Samples;Min_cycle;Max_cycle;Signal;HPM_P1;HPM_P2
2022/07/20 00:00:17;;;;;;;0.10;0.10;;;;;;;26.28;41.05;101254.31;5044295;28;20405;-84
2022/07/20 00:02:43;;;;;;;0.05;0.05;;;;;;;26.23;41.49;101258.38;5043247;28;20045;-84
2022/07/20 00:05:09;;;;;;;0.10;0.10;;;;;;;26.18;41.61;101249.72;5036069;28;20033;-84
2022/07/20 00:07:35;;;;;;;0.10;0.10;;;;;;;26.13;41.26;101252.78;5035881;28;20052;-82
2022/07/20 00:12:48;;;;;;;0.05;0.05;;;;;;;26.03;41.74;101274.34;5037845;28;20477;-83
2022/07/20 00:15:14;;;;;;;0.10;0.10;;;;;;;25.79;38.59;101353.16;5047402;28;20107;-84
2022/07/20 00:17:40;;;;;;;0.10;0.10;;;;;;;26.06;36.06;101282.31;5044768;28;20033;-84
2022/07/20 00:20:07;;;;;;;0.10;0.10;;;;;;;26.47;36.31;101269.97;5035058;28;20071;-84
2022/07/20 00:22:33;;;;;;;0.00;0.00;;;;;;;26.73;36.81;101301.44;5035272;28;20025;-83
2022/07/20 00:25:00;;;;;;;0.10;0.10;;;;;;;26.84;35.83;101295.16;5035819;28;20040;-83
2022/07/20 00:27:26;;;;;;;0.10;0.10;;;;;;;27.10;34.30;101310.22;5042694;28;20037;-83
2022/07/20 00:29:52;;;;;;;0.90;0.90;;;;;;;27.27;34.70;101297.06;5043189;28;20283;-83
2022/07/20 00:32:18;;;;;;;0.80;0.60;;;;;;;27.43;35.12;101285.78;5040120;28;20033;-84
2022/07/20 00:34:44;;;;;;;0.32;0.32;;;;;;;27.52;34.38;101275.97;5044278;28;20039;-84
2022/07/20 00:37:10;;;;;;;0.88;0.73;;;;;;;27.57;34.60;101276.44;5036461;28;20079;-84
2022/07/20 00:39:37;;;;;;;0.00;0.00;;;;;;;27.55;35.97;101276.56;5035211;28;20018;-83
2022/07/20 00:42:03;;;;;;;0.20;0.20;;;;;;;27.50;35.60;101248.00;5036877;28;20432;-83
2022/07/20 00:44:29;;;;;;;0.47;0.47;;;;;;;27.47;35.88;101265.47;5044622;28;20033;-84
2022/07/20 00:46:56;;;;;;;0.40;0.40;;;;;;;27.39;36.77;101263.38;5042595;28;20064;-84
2022/07/20 00:49:23;;;;;;;0.30;0.30;;;;;;;27.28;37.14;101249.81;5042539;28;20056;-83
2022/07/20 00:51:50;;;;;;;0.10;0.10;;;;;;;27.21;37.09;101248.59;5039451;28;20112;-84
2022/07/20 00:54:16;;;;;;;0.10;0.10;;;;;;;27.10;37.72;101255.81;5037274;28;20021;-84
2022/07/20 00:56:43;;;;;;;0.00;0.00;;;;;;;26.98;39.63;101245.97;5037637;28;20034;-84
2022/07/20 00:59:10;;;;;;;0.00;0.00;;;;;;;26.89;38.42;101234.00;5040224;28;20025;-83
2022/07/20 01:01:37;;;;;;;0.10;0.10;;;;;;;26.80;38.34;101238.34;5040690;28;20038;-83
2022/07/20 01:04:03;;;;;;;0.28;0.28;;;;;;;26.72;38.34;101248.09;5032998;28;20072;-84
2022/07/20 01:06:30;;;;;;;0.00;0.00;;;;;;;26.64;38.79;101249.59;5033656;28;20034;-84
2022/07/20 01:08:56;;;;;;;0.10;0.10;;;;;;;26.58;38.44;101251.91;5032987;28;20026;-84
2022/07/20 01:11:22;;;;;;;0.10;0.10;;;;;;;26.48;37.85;101269.00;5034342;28;20041;-83
2022/07/20 01:13:49;;;;;;;0.10;0.10;;;;;;;26.48;37.85;101258.13;5042098;28;20033;-83
2022/07/20 01:16:15;;;;;;;0.00;0.00;;;;;;;26.50;37.87;101257.13;5042416;28;20517;-84
2022/07/20 01:18:41;;;;;;;0.20;0.20;;;;;;;26.47;39.13;101256.38;5041952;28;20421;-84
2022/07/20 01:21:08;;;;;;;0.10;0.10;;;;;;;26.42;38.85;101269.50;5032536;28;20037;-84
2022/07/20 01:23:35;;;;;;;0.13;0.13;;;;;;;26.36;39.10;101264.53;5033459;28;20113;-84
2022/07/20 01:26:02;;;;;;;0.20;0.20;;;;;;;26.29;39.88;101264.19;5037930;28;20591;-82
2022/07/20 01:28:30;;;;;;;0.10;0.10;;;;;;;26.21;39.91;101257.66;5048189;28;20068;-83
2022/07/20 01:30:56;;;;;;;0.65;0.65;;;;;;;26.12;40.76;101272.78;5045970;28;20052;-84
2022/07/20 01:33:22;;;;;;;0.35;0.20;;;;;;;26.03;40.38;101274.34;5053984;28;20025;-84
2022/07/20 01:35:48;;;;;;;0.10;0.10;;;;;;;25.97;39.95;101285.69;5054141;28;20025;-84
2022/07/20 01:38:14;;;;;;;0.10;0.10;;;;;;;25.91;40.54;101280.78;5053817;28;20104;-83
2022/07/20 01:40:40;;;;;;;0.10;0.10;;;;;;;25.79;39.44;101288.84;5049473;28;20041;-83
2022/07/20 01:43:07;;;;;;;0.65;0.50;;;;;;;25.82;39.57;101283.22;5040446;28;20037;-84
2022/07/20 01:45:33;;;;;;;2.63;0.63;;;;;;;25.83;39.49;101279.53;5041741;28;20033;-83
2022/07/20 01:47:59;;;;;;;0.10;0.10;;;;;;;25.86;39.85;101278.41;5036656;28;20029;-83
2022/07/20 01:50:25;;;;;;;0.00;0.00;;;;;;;25.87;39.49;101291.00;5037194;28;20025;-83
2022/07/20 01:52:51;;;;;;;0.57;0.57;;;;;;;25.83;39.10;101290.38;5035941;28;20120;-83
2022/07/20 01:55:18;;;;;;;0.15;0.15;;;;;;;25.84;38.68;101291.22;5036638;28;20038;-83
2022/07/20 01:57:44;;;;;;;0.22;0.22;;;;;;;25.85;38.52;101292.97;5048020;28;20116;-83
2022/07/20 02:00:12;;;;;;;0.00;0.00;;;;;;;25.83;39.27;101295.81;5044834;28;20033;-84
2022/07/20 02:02:39;;;;;;;0.25;0.25;;;;;;;25.87;39.67;101300.97;5045185;28;20030;-84
2022/07/20 02:05:08;;;;;;;0.25;0.25;;;;;;;25.82;40.39;101304.94;5041612;28;20029;-84
2022/07/20 02:07:35;;;;;;;0.20;0.20;;;;;;;25.89;41.92;101308.00;5035876;28;20120;-84
2022/07/20 02:10:01;;;;;;;0.20;0.20;;;;;;;25.95;41.90;101309.41;5047338;28;20025;-84
2022/07/20 02:12:27;;;;;;;0.43;0.43;;;;;;;25.89;42.21;101316.16;5051596;28;20041;-83
2022/07/20 02:14:53;;;;;;;0.50;0.50;;;;;;;25.86;44.61;101312.81;5046531;28;20029;-84
2022/07/20 02:17:20;;;;;;;1.45;1.35;;;;;;;25.82;46.75;101304.94;5038338;28;20064;-83
2022/07/20 02:19:46;;;;;;;0.32;0.32;;;;;;;25.83;46.17;101303.94;5039658;28;20112;-83
2022/07/20 02:22:12;;;;;;;1.50;0.73;;;;;;;25.85;45.57;101309.25;5038603;28;20079;-84
2022/07/20 02:24:38;;;;;;;0.65;0.65;;;;;;;25.80;46.33;101301.44;5042835;28;20088;-84
2022/07/20 02:27:04;;;;;;;0.55;0.55;;;;;;;25.82;46.12;101302.22;5046583;28;20041;-84
2022/07/20 02:29:30;;;;;;;1.25;0.52;;;;;;;25.76;48.42;101302.69;5047296;28;20025;-84
2022/07/20 02:31:56;;;;;;;0.65;0.65;;;;;;;25.75;48.31;101305.53;5037742;28;20528;-84
2022/07/20 02:34:23;;;;;;;1.25;1.25;;;;;;;25.73;48.47;101319.19;5038490;28;20030;-83
2022/07/20 02:36:49;;;;;;;4.95;0.90;;;;;;;25.70;50.24;101311.31;5038803;28;20025;-83
2022/07/20 02:39:15;;;;;;;1.13;1.02;;;;;;;25.65;49.56;101310.78;5044371;28;20071;-83
2022/07/20 02:41:41;;;;;;;1.45;1.25;;;;;;;25.66;49.06;101320.66;5046925;28;20037;-85
2022/07/20 02:44:07;;;;;;;3.28;0.80;;;;;;;25.60;50.00;101304.84;5049517;28;20029;-86
2022/07/20 02:46:33;;;;;;;0.43;0.43;;;;;;;25.57;51.18;101295.09;5040181;28;20041;-84
2022/07/20 02:48:59;;;;;;;0.15;0.15;;;;;;;25.56;50.99;101306.06;5037839;28;20032;-84
2022/07/20 02:51:25;;;;;;;0.70;0.70;;;;;;;25.51;52.19;101306.44;5038703;28;20030;-84
2022/07/20 02:53:51;;;;;;;0.30;0.30;;;;;;;25.45;50.88;101306.91;5048095;28;20048;-83
2022/07/20 02:56:18;;;;;;;1.00;1.00;;;;;;;25.43;50.16;101309.69;5049248;28;20032;-83
2022/07/20 02:58:44;;;;;;;1.33;1.33;;;;;;;25.44;52.30;101311.44;5038552;28;20104;-83
2022/07/20 03:01:10;;;;;;;1.20;1.20;;;;;;;25.38;52.27;101309.19;5037032;28;20069;-83
2022/07/20 03:03:36;;;;;;;0.75;0.75;;;;;;;25.36;51.67;101313.84;5044005;28;20112;-83
2022/07/20 03:06:02;;;;;;;0.40;0.40;;;;;;;25.36;52.97;101319.28;5043533;28;20033;-83
2022/07/20 03:08:28;;;;;;;3.22;1.73;;;;;;;25.31;52.46;101321.44;5044510;28;20080;-84
2022/07/20 03:10:54;;;;;;;1.48;0.98;;;;;;;25.27;52.92;101319.94;5048333;28;20032;-83
2022/07/20 03:13:21;;;;;;;1.73;1.63;;;;;;;25.25;55.56;101321.94;5046840;28;20044;-84
2022/07/20 03:15:47;;;;;;;2.58;1.52;;;;;;;25.24;54.83;101322.91;5045423;28;20044;-84
2022/07/20 03:18:13;;;;;;;0.95;0.95;;;;;;;25.23;53.50;101319.31;5036876;28;20082;-84
2022/07/20 03:20:39;;;;;;;12.43;2.40;;;;;;;25.20;54.47;101335.81;5037263;28;20089;-84
2022/07/20 03:23:05;;;;;;;1.13;1.00;;;;;;;25.20;52.79;101331.25;5037486;28;20033;-83
2022/07/20 03:25:31;;;;;;;1.85;0.68;;;;;;;25.19;54.12;101324.09;5093300;22;20036;-77
2022/07/20 03:27:59;;;;;;;6.43;1.38;;;;;;;25.20;53.86;101328.53;5066050;28;20028;-77
2022/07/20 03:30:25;;;;;;;0.57;0.57;;;;;;;25.22;53.38;101333.00;5066482;28;20020;-76
2022/07/20 03:32:52;;;;;;;0.75;0.75;;;;;;;25.18;54.77;101330.53;5073610;28;20032;-77
2022/07/20 03:35:20;;;;;;;3.60;2.13;;;;;;;25.20;53.78;101331.25;5072732;28;20032;-76
2022/07/20 03:37:46;;;;;;;1.35;1.25;;;;;;;25.22;54.81;101343.84;5068738;28;20032;-78
2022/07/20 03:40:12;;;;;;;0.80;0.55;;;;;;;25.18;54.96;101346.78;5064366;28;20056;-78
2022/07/20 03:42:38;;;;;;;1.75;1.65;;;;;;;25.18;55.96;101344.06;5072685;28;20660;-77
2022/07/20 03:45:05;;;;;;;0.85;0.85;;;;;;;25.19;55.21;101351.22;5076161;28;20066;-78
2022/07/20 03:47:32;;;;;;;2.53;2.33;;;;;;;25.22;55.42;101354.69;5075851;28;20044;-78
2022/07/20 03:49:58;;;;;;;0.88;0.88;;;;;;;25.17;55.80;101374.88;5076128;28;20475;-78
2022/07/20 03:52:24;;;;;;;1.00;0.93;;;;;;;25.09;55.61;101382.69;5066616;28;20033;-77
2022/07/20 03:54:50;;;;;;;1.38;1.38;;;;;;;25.13;56.06;101384.19;5066616;28;20107;-78
2022/07/20 03:57:17;;;;;;;1.50;1.40;;;;;;;25.26;55.64;101386.00;5067729;28;20032;-78
2022/07/20 03:59:43;;;;;;;0.98;0.98;;;;;;;25.34;55.07;101380.88;5075500;28;20033;-79
2022/07/20 04:02:09;;;;;;;2.63;2.42;;;;;;;25.49;54.75;101379.75;5074790;28;20036;-78
2022/07/20 04:04:35;;;;;;;1.77;1.67;;;;;;;25.56;54.67;101382.03;5076084;28;20024;-78
2022/07/20 04:07:01;;;;;;;0.88;0.88;;;;;;;25.43;55.59;101390.22;5066861;28;20032;-77
2022/07/20 04:09:58;;;;;;;0.73;0.73;;;;;;;25.39;55.07;101394.16;5066412;28;20063;-78
2022/07/20 04:12:16;;;;;;;1.92;1.45;;;;;;;25.60;54.27;101386.25;5070912;28;20033;-77
2022/07/20 04:14:44;;;;;;;19.80;2.78;;;;;;;25.59;54.30;101389.94;5076365;28;20111;-78
2022/07/20 04:17:10;;;;;;;2.80;2.08;;;;;;;25.67;54.04;101404.66;5076151;28;20033;-77
2022/07/20 04:19:37;;;;;;;0.80;0.80;;;;;;;25.72;54.05;101407.03;5063085;28;20614;-78
2022/07/20 04:22:03;;;;;;;3.03;2.58;;;;;;;25.77;53.86;101406.66;5063448;28;20544;-78
2022/07/20 04:24:29;;;;;;;1.65;1.55;;;;;;;25.74;53.75;101402.34;5056871;28;20025;-77
2022/07/20 04:26:55;;;;;;;3.03;2.08;;;;;;;25.83;53.17;101407.09;5057708;28;20113;-78
2022/07/20 04:29:22;;;;;;;0.57;0.57;;;;;;;25.94;53.07;101414.41;5058183;28;20377;-78
2022/07/20 04:31:49;;;;;;;1.15;1.15;;;;;;;26.05;53.12;101418.16;5058129;28;20032;-78
2022/07/20 04:34:16;;;;;;;2.00;1.90;;;;;;;26.10;52.23;101419.56;5063563;28;20040;-78
2022/07/20 04:36:42;;;;;;;0.35;0.35;;;;;;;26.08;52.48;101420.66;5064446;28;20458;-78
2022/07/20 04:39:08;;;;;;;1.40;1.30;;;;;;;26.17;52.35;101417.25;5055407;28;20021;-78
2022/07/20 04:41:34;;;;;;;0.70;0.70;;;;;;;26.21;52.30;101417.88;5054644;28;20033;-77
2022/07/20 04:44:00;;;;;;;1.60;1.17;;;;;;;26.21;52.13;101407.88;5055506;28;20028;-78
2022/07/20 04:46:28;;;;;;;1.38;1.08;;;;;;;26.18;52.15;101418.09;5055285;28;20038;-78
2022/07/20 04:48:54;;;;;;;2.20;2.10;;;;;;;26.21;51.57;101418.72;5056276;28;20040;-77
2022/07/20 04:51:21;;;;;;;1.13;1.13;;;;;;;26.27;51.66;101422.81;5061343;28;20063;-78
2022/07/20 04:53:48;;;;;;;2.00;1.75;;;;;;;26.24;51.57;101439.34;5055451;28;20055;-78
2022/07/20 04:56:14;;;;;;;1.20;1.20;;;;;;;26.31;50.97;101451.50;5055786;28;20080;-78
2022/07/20 04:58:40;;;;;;;1.25;1.17;;;;;;;26.31;51.12;101467.78;5055406;28;20025;-78
2022/07/20 05:01:07;;;;;;;7.80;3.45;;;;;;;26.25;50.88;101446.53;5060746;28;20033;-78
2022/07/20 05:03:33;;;;;;;0.43;0.43;;;;;;;26.24;50.52;101447.50;5065485;28;20460;-78
2022/07/20 05:05:59;;;;;;;1.65;1.52;;;;;;;26.32;50.28;101459.50;5069156;28;20024;-78
2022/07/20 05:08:25;;;;;;;0.77;0.77;;;;;;;26.37;50.14;101458.28;5075469;28;20024;-78
2022/07/20 05:10:51;;;;;;;8.50;2.03;;;;;;;26.27;49.73;101459.00;5075402;28;20033;-78
2022/07/20 05:13:17;;;;;;;1.45;1.35;;;;;;;26.29;49.89;101448.00;5075802;28;20047;-78
2022/07/20 05:15:43;;;;;;;0.47;0.47;;;;;;;26.40;49.49;101444.47;5075499;28;20028;-78
2022/07/20 05:18:09;;;;;;;7.88;1.10;;;;;;;26.32;48.89;101442.34;5066447;28;20036;-78
2022/07/20 05:20:35;;;;;;;2.85;1.98;;;;;;;26.29;48.83;101456.16;5065582;28;20492;-78
2022/07/20 05:23:01;;;;;;;1.05;1.05;;;;;;;26.25;48.70;101460.97;5079538;28;20043;-78
2022/07/20 05:25:27;;;;;;;6.50;3.50;;;;;;;26.29;48.14;101461.59;5078830;28;20385;-78
2022/07/20 05:27:53;;;;;;;6.18;4.03;;;;;;;26.26;48.40;101465.41;5079299;28;20481;-78
2022/07/20 05:30:19;;;;;;;0.40;0.40;;;;;;;26.30;48.07;101466.91;5077379;28;20523;-77
2022/07/20 05:32:45;;;;;;;1.88;1.38;;;;;;;26.22;48.12;101479.34;5068698;28;20067;-78
2022/07/20 05:35:12;;;;;;;1.23;1.13;;;;;;;26.12;48.45;101485.50;5062574;28;20040;-78
2022/07/20 05:37:38;;;;;;;6.53;2.45;;;;;;;26.21;47.92;101483.06;5069347;28;20183;-78
2022/07/20 05:40:04;;;;;;;2.20;1.10;;;;;;;26.05;48.31;101505.06;5071166;28;20031;-78
2022/07/20 05:42:30;;;;;;;3.20;2.30;;;;;;;26.12;48.03;101495.47;5062175;28;20040;-78
2022/07/20 05:44:56;;;;;;;4.05;0.77;;;;;;;26.03;47.76;101521.44;5060229;28;20480;-78
2022/07/20 05:47:23;;;;;;;0.43;0.32;;;;;;;26.12;47.98;101511.75;5073298;28;20029;-77
2022/07/20 05:49:49;;;;;;;1.45;1.25;;;;;;;26.10;47.77;101530.88;5061986;28;20037;-78
2022/07/20 05:52:16;;;;;;;3.67;1.20;;;;;;;26.14;47.82;101526.09;5078049;28;20055;-78
2022/07/20 05:54:42;;;;;;;5.70;1.27;;;;;;;26.09;47.50;101534.59;5077615;28;20107;-78
2022/07/20 05:57:08;;;;;;;1.20;1.10;;;;;;;26.09;47.58;101533.72;5078297;28;20134;-78
2022/07/20 05:59:34;;;;;;;1.63;1.52;;;;;;;26.14;47.74;101532.41;5076042;28;20033;-77
2022/07/20 06:02:00;;;;;;;0.20;0.20;;;;;;;26.09;47.62;101534.59;5062194;28;20428;-77
2022/07/20 06:04:26;;;;;;;2.58;2.38;;;;;;;26.26;47.19;101535.19;5064844;28;20082;-77
2022/07/20 06:06:52;;;;;;;1.63;1.52;;;;;;;26.40;46.87;101555.88;5070324;28;20033;-76
2022/07/20 06:09:18;;;;;;;1.00;1.00;;;;;;;26.44;47.46;101546.47;5070036;28;20025;-77
2022/07/20 06:11:44;;;;;;;2.03;1.83;;;;;;;26.38;47.07;101553.28;5063613;28;20037;-77
2022/07/20 06:14:10;;;;;;;0.32;0.32;;;;;;;26.46;46.89;101553.53;5071630;28;20036;-77
2022/07/20 06:16:36;;;;;;;0.65;0.55;;;;;;;26.58;46.76;101562.59;5066299;28;20555;-77
2022/07/20 06:19:02;;;;;;;0.73;0.73;;;;;;;26.65;46.62;101568.44;5063974;28;20029;-77
2022/07/20 06:21:29;;;;;;;1.13;0.73;;;;;;;26.75;46.57;101579.50;5072625;28;20032;-77
2022/07/20 06:23:55;;;;;;;1.50;1.40;;;;;;;26.78;46.87;101585.56;5076419;28;20032;-77
2022/07/20 06:26:22;;;;;;;0.90;0.82;;;;;;;26.82;46.49;101590.75;5075472;28;20115;-77
2022/07/20 06:28:49;;;;;;;0.47;0.47;;;;;;;26.93;46.18;101599.81;5076076;28;20067;-77
2022/07/20 06:31:15;;;;;;;0.85;0.85;;;;;;;26.95;46.25;101602.41;5067729;28;20032;-78
2022/07/20 06:33:41;;;;;;;0.85;0.85;;;;;;;26.89;46.00;101611.94;5067687;28;20059;-76
2022/07/20 06:36:08;;;;;;;0.47;0.47;;;;;;;26.95;45.83;101621.44;5069680;28;20032;-77
2022/07/20 06:38:34;;;;;;;0.80;0.80;;;;;;;27.04;45.62;101644.34;5075046;28;20064;-78
2022/07/20 06:41:01;;;;;;;1.00;0.90;;;;;;;26.83;45.37;101645.03;5071122;28;20040;-77
2022/07/20 06:43:27;;;;;;;0.10;0.10;;;;;;;26.97;45.57;101652.13;5064775;28;20028;-77
2022/07/20 06:45:53;;;;;;;0.40;0.40;;;;;;;27.07;45.33;101649.56;5064373;28;20060;-77
2022/07/20 06:48:19;;;;;;;1.13;0.85;;;;;;;27.13;45.31;101654.53;5065800;28;20040;-77
2022/07/20 06:50:46;;;;;;;0.40;0.40;;;;;;;27.22;45.63;101670.13;5065401;28;20169;-78
2022/07/20 06:53:12;;;;;;;0.65;0.65;;;;;;;27.27;45.66;101673.34;5075225;28;20102;-77
2022/07/20 06:55:38;;;;;;;0.88;0.85;;;;;;;27.28;44.98;101682.38;5070184;28;20033;-77
2022/07/20 06:58:04;;;;;;;0.20;0.20;;;;;;;27.38;44.53;101688.81;5061921;28;20501;-78
2022/07/20 07:00:31;;;;;;;0.65;0.65;;;;;;;27.35;44.43;101691.78;5070048;28;20033;-78
2022/07/20 07:02:57;;;;;;;0.32;0.32;;;;;;;27.57;44.80;101690.13;5061310;28;20028;-77
2022/07/20 07:05:23;;;;;;;0.30;0.30;;;;;;;27.69;45.83;101686.44;5062263;28;20060;-77
2022/07/20 07:07:49;;;;;;;0.60;0.57;;;;;;;27.74;45.58;101703.28;5074489;28;20101;-77
2022/07/20 07:10:15;;;;;;;0.73;0.73;;;;;;;27.66;46.56;101704.88;5074034;28;20039;-77
2022/07/20 07:12:41;;;;;;;1.00;0.88;;;;;;;27.57;46.17;101707.31;5064350;28;20109;-77
2022/07/20 07:15:08;;;;;;;1.05;1.05;;;;;;;27.71;46.41;101714.41;5062952;28;20063;-77
2022/07/20 07:17:34;;;;;;;0.38;0.38;;;;;;;27.61;46.65;101702.50;5063323;28;20035;-77
2022/07/20 07:20:00;;;;;;;0.85;0.85;;;;;;;27.79;46.32;101702.03;5061209;28;20037;-77
2022/07/20 07:22:27;;;;;;;0.80;0.80;;;;;;;27.74;46.32;101708.72;5050489;28;20036;-77
2022/07/20 07:24:53;;;;;;;0.73;0.73;;;;;;;27.62;45.75;101706.97;5053195;28;20477;-77
2022/07/20 07:27:20;;;;;;;0.57;0.55;;;;;;;27.66;46.04;101711.16;5052937;28;20039;-76
2022/07/20 07:29:46;;;;;;;2.08;1.88;;;;;;;27.23;46.38;101719.97;5059412;28;20059;-77
2022/07/20 07:32:12;;;;;;;0.40;0.40;;;;;;;27.30;46.48;101721.19;5061135;28;20033;-77
2022/07/20 07:34:38;;;;;;;0.70;0.70;;;;;;;27.22;46.05;101718.22;5072300;28;20078;-77
2022/07/20 07:37:04;;;;;;;0.30;0.30;;;;;;;27.16;45.71;101724.13;5073304;28;20395;-77
2022/07/20 07:39:31;;;;;;;0.10;0.10;;;;;;;27.10;45.72;101729.06;5073242;28;20040;-77
2022/07/20 07:41:57;;;;;;;0.28;0.28;;;;;;;27.13;45.82;101726.09;5072417;28;20484;-77
2022/07/20 07:44:23;;;;;;;4.90;1.15;;;;;;;27.17;45.88;101731.31;5064672;28;20033;-77
2022/07/20 07:46:49;;;;;;;0.40;0.40;;;;;;;27.24;45.68;101721.69;5059385;28;20031;-77
2022/07/20 07:49:15;;;;;;;1.65;0.73;;;;;;;27.28;45.74;101736.78;5064232;28;20029;-77
2022/07/20 07:51:42;;;;;;;0.22;0.22;;;;;;;27.35;46.31;101723.56;5071921;28;20432;-77
2022/07/20 07:54:08;;;;;;;1.42;1.33;;;;;;;27.44;46.37;101731.03;5073210;28;20028;-77
2022/07/20 07:56:35;;;;;;;0.68;0.68;;;;;;;27.61;45.93;101735.16;5072062;28;20029;-77
2022/07/20 07:59:01;;;;;;;0.32;0.32;;;;;;;27.69;46.58;101740.00;5063192;28;20152;-76
2022/07/20 08:01:27;;;;;;;0.52;0.40;;;;;;;27.82;45.23;101739.94;5060663;28;20500;-77
2022/07/20 08:03:53;;;;;;;0.75;0.60;;;;;;;27.86;45.88;101739.53;5073751;28;20063;-77
2022/07/20 08:06:20;;;;;;;0.30;0.30;;;;;;;27.90;46.21;101735.59;5072315;28;20025;-77
2022/07/20 08:08:46;;;;;;;0.30;0.30;;;;;;;28.03;45.77;101732.75;5072002;28;20032;-77
2022/07/20 08:11:12;;;;;;;0.75;0.75;;;;;;;28.09;45.89;101735.00;5067309;28;20032;-77
2022/07/20 08:13:38;;;;;;;1.40;1.33;;;;;;;28.08;45.72;101722.38;5059301;28;20029;-77
2022/07/20 08:16:04;;;;;;;0.52;0.52;;;;;;;28.04;44.82;101720.91;5062636;28;20039;-77
2022/07/20 08:18:30;;;;;;;0.20;0.20;;;;;;;28.09;44.89;101718.66;5071333;28;20032;-77
2022/07/20 08:20:57;;;;;;;0.50;0.50;;;;;;;28.11;45.03;101704.06;5068060;28;20044;-77
2022/07/20 08:23:23;;;;;;;0.75;0.75;;;;;;;28.25;44.73;101703.78;5042607;28;20065;-76
2022/07/20 08:25:49;;;;;;;0.17;0.17;;;;;;;28.43;44.83;101708.75;5031116;28;20489;-77
2022/07/20 08:28:17;;;;;;;0.45;0.45;;;;;;;28.17;43.07;101709.00;5034563;28;20036;-77
2022/07/20 08:30:45;;;;;;;0.52;0.52;;;;;;;28.18;42.62;101699.84;5055896;28;20040;-76
2022/07/20 08:33:12;;;;;;;1.27;1.23;;;;;;;28.28;42.31;101700.81;5058173;28;20048;-77
2022/07/20 08:35:39;;;;;;;3.90;0.77;;;;;;;28.53;42.11;101704.25;5068029;28;20085;-77
2022/07/20 08:38:06;;;;;;;0.22;0.22;;;;;;;28.41;41.60;101701.56;5056919;28;20035;-77
2022/07/20 08:40:33;;;;;;;0.80;0.80;;;;;;;28.54;40.53;101692.34;5061027;28;20059;-77
2022/07/20 08:43:00;;;;;;;1.65;0.90;;;;;;;28.71;40.46;101691.84;5069247;28;20052;-77
2022/07/20 08:45:28;;;;;;;0.70;0.70;;;;;;;28.92;41.02;101699.19;5057321;28;20037;-77
2022/07/20 08:48:00;;;;;;;1.05;0.65;;;;;;;28.89;39.17;101710.38;5063122;28;20075;-77
2022/07/20 08:50:29;;;;;;;3.85;2.17;;;;;;;29.02;39.29;101711.06;5063436;28;20021;-77
2022/07/20 08:52:56;;;;;;;0.63;0.57;;;;;;;29.12;38.50;101704.81;5048026;28;20040;-77
2022/07/20 08:55:23;;;;;;;0.82;0.82;;;;;;;29.32;38.39;101711.31;5048652;28;20094;-77
2022/07/20 08:57:50;;;;;;;2.75;1.85;;;;;;;29.46;37.50;101713.72;5036259;28;20060;-77
2022/07/20 09:00:16;;;;;;;0.35;0.35;;;;;;;29.26;37.89;101685.41;5050963;28;20126;-77
2022/07/20 09:05:28;;;;;;;0.20;0.20;;;;;;;29.23;38.40;101662.97;5109326;27;20351;-76
2022/07/20 09:07:56;;;;;;;3.22;2.03;;;;;;;29.16;38.27;101668.06;5109184;28;20399;-76
2022/07/20 09:13:08;;;;;;;0.88;0.88;;;;;;;29.14;38.55;101679.13;5083161;27;20397;-76
2022/07/20 09:18:27;;;;;;;0.25;0.25;;;;;;;29.23;37.93;101687.53;5124565;27;20750;-75
2022/07/20 09:20:56;;;;;;;0.40;0.40;;;;;;;29.36;38.56;101719.09;5114386;27;20096;-75
2022/07/20 09:23:25;;;;;;;0.35;0.35;;;;;;;29.32;36.38;101734.03;5110346;27;20085;-76
2022/07/20 09:25:57;;;;;;;0.77;0.77;;;;;;;29.46;37.83;101783.81;5125417;22;20076;-80
2022/07/20 09:34:23;;;;;;;0.10;0.10;;;;;;;29.01;39.32;101769.34;5107757;27;20387;-80
2022/07/20 09:36:41;;;;;;;1.02;0.95;;;;;;;28.96;38.78;101801.59;5093232;28;20032;-82
2022/07/20 09:39:12;;;;;;;0.70;0.70;;;;;;;28.90;39.12;101791.22;5086397;28;20028;-79
2022/07/20 09:41:41;;;;;;;0.50;0.25;;;;;;;29.05;39.48;101809.00;5092778;28;20033;-80
2022/07/20 09:44:10;;;;;;;0.40;0.40;;;;;;;29.26;39.50;101800.03;5092499;28;20051;-80
2022/07/20 09:46:38;;;;;;;0.68;0.68;;;;;;;29.15;38.55;101802.78;5094067;28;20052;-77
2022/07/20 09:51:44;;;;;;;3.65;2.35;;;;;;;29.32;38.03;101799.53;5093933;28;20499;-81
2022/07/20 09:54:12;;;;;;;0.20;0.20;;;;;;;29.56;38.34;101792.06;5094110;28;20035;-81
2022/07/20 09:56:42;;;;;;;0.40;0.40;;;;;;;29.88;37.65;101807.53;5094803;28;20037;-81
2022/07/20 09:59:11;;;;;;;0.65;0.45;;;;;;;30.07;37.22;101820.47;5091511;28;20221;-80
2022/07/20 10:01:41;;;;;;;2.17;0.90;;;;;;;30.12;37.94;101812.72;5084732;28;20453;-78
2022/07/20 10:04:10;;;;;;;0.28;0.28;;;;;;;30.25;37.54;101812.53;5081539;28;20107;-80
2022/07/20 10:06:39;;;;;;;0.20;0.20;;;;;;;30.36;37.56;101803.34;5085581;28;20029;-81
2022/07/20 10:09:06;;;;;;;0.00;0.00;;;;;;;30.48;37.39;101802.25;5077870;28;20044;-79
2022/07/20 10:11:33;;;;;;;0.22;0.20;;;;;;;30.52;37.57;101792.81;5079171;28;20021;-80
2022/07/20 10:14:02;;;;;;;0.10;0.10;;;;;;;30.63;37.05;101761.72;5083906;28;20124;-78
2022/07/20 10:19:10;;;;;;;0.20;0.20;;;;;;;30.63;36.00;101787.22;5113831;27;20589;-81
2022/07/20 10:21:48;;;;;;;0.38;0.38;;;;;;;30.68;36.85;101805.09;5113569;28;20028;-80
2022/07/20 10:27:26;;;;;;;0.90;0.90;;;;;;;30.27;36.46;101821.44;5071894;27;20398;-80
2022/07/20 10:29:54;;;;;;;0.43;0.43;;;;;;;30.13;36.57;101831.75;5056729;27;20435;-81
2022/07/20 10:35:00;;;;;;;1.05;1.02;;;;;;;30.15;37.69;101823.41;5071930;28;20426;-80
2022/07/20 10:42:48;;;;;;;1.70;1.05;;;;;;;30.25;37.28;101810.66;5125807;27;20480;-79
2022/07/20 10:50:36;;;;;;;0.40;0.32;;;;;;;30.52;37.18;101830.22;5117406;27;1238052;-83
2022/07/20 10:55:58;;;;;;;0.10;0.10;;;;;;;30.43;36.46;101815.47;5106691;27;20387;-81
2022/07/20 10:58:30;;;;;;;0.10;0.10;;;;;;;30.34;36.51;101812.56;5072865;28;20041;-81
2022/07/20 11:01:14;;;;;;;11.90;1.10;;;;;;;30.43;37.08;101804.53;5072688;28;20441;-79
2022/07/20 11:03:43;;;;;;;0.60;0.60;;;;;;;30.46;36.65;101785.13;5074264;28;20115;-82
2022/07/20 11:11:28;;;;;;;0.15;0.15;;;;;;;30.03;37.19;101778.88;5071415;28;20410;-82
2022/07/20 11:13:55;;;;;;;0.40;0.40;;;;;;;29.90;38.10;101768.19;5074813;28;20024;-84
2022/07/20 11:16:24;;;;;;;0.43;0.43;;;;;;;30.17;38.01;101783.16;5067371;28;20560;-85
2022/07/20 11:18:51;;;;;;;0.05;0.05;;;;;;;30.36;37.71;101781.47;5055895;28;20029;-84
2022/07/20 11:21:27;;;;;;;0.20;0.20;;;;;;;30.31;37.11;101811.97;5056935;28;20029;-84
2022/07/20 11:23:53;;;;;;;0.40;0.40;;;;;;;30.36;38.02;101814.28;5056812;28;20039;-85
2022/07/20 11:26:21;;;;;;;0.82;0.30;;;;;;;30.31;38.97;101823.78;5056268;28;20500;-85
2022/07/20 11:28:56;;;;;;;0.10;0.10;;;;;;;30.21;38.30;101825.59;5047661;28;20025;-84
2022/07/20 11:31:25;;;;;;;0.50;0.50;;;;;;;30.09;39.12;101813.03;5056492;28;20473;-84
2022/07/20 11:33:53;;;;;;;0.20;0.20;;;;;;;30.09;39.37;101819.34;5054892;28;20068;-84
2022/07/20 11:36:25;;;;;;;0.35;0.35;;;;;;;30.18;39.15;101850.44;5054456;28;20037;-85
2022/07/20 11:38:53;;;;;;;0.20;0.20;;;;;;;30.29;39.31;101833.97;5050967;28;20033;-84
2022/07/20 11:41:22;;;;;;;0.00;0.00;;;;;;;30.41;38.98;101833.91;5041603;28;20032;-83
2022/07/20 11:43:50;;;;;;;0.57;0.15;;;;;;;30.43;38.52;101819.09;5046814;28;20036;-85
2022/07/20 11:46:22;;;;;;;3.30;1.55;;;;;;;30.66;39.38;101819.75;5056542;28;20156;-84
2022/07/20 11:49:06;;;;;;;;;;;;;;;30.88;39.15;101828.75;5052328;28;20067;-85
2022/07/20 11:51:35;;;;;;;0.45;0.20;;;;;;;30.86;38.84;101828.03;5044756;28;19909;-84
2022/07/20 11:54:06;;;;;;;0.13;0.13;;;;;;;30.75;38.57;101829.00;5051208;28;20045;-81
2022/07/20 11:56:34;;;;;;;0.10;0.10;;;;;;;30.56;39.24;101854.41;5055648;28;20501;-83
2022/07/20 11:59:09;;;;;;;0.25;0.25;;;;;;;30.20;39.38;101861.28;5056952;28;20076;-84
2022/07/20 12:01:37;;;;;;;0.10;0.10;;;;;;;30.02;40.40;101879.13;5057323;28;20040;-84
2022/07/20 12:04:07;;;;;;;0.90;0.70;;;;;;;29.84;40.22;101850.66;5054753;28;20025;-84
2022/07/20 12:06:37;;;;;;;0.38;0.38;;;;;;;29.71;41.11;101853.59;5056101;28;20040;-82
2022/07/20 12:09:07;;;;;;;0.10;0.10;;;;;;;29.55;41.10;101864.94;5053441;28;20099;-83